createdAt,value
2023-03-06T00:00:06.283Z,90.70
2023-03-06T00:01:06.300Z,91.02
2023-03-06T00:02:06.266Z,90.91
2023-03-06T00:03:06.261Z,91.02
2023-03-06T00:04:06.473Z,91.64
2023-03-06T00:05:06.223Z,91.68
2023-03-06T00:06:06.299Z,91.53
2023-03-06T00:07:06.215Z,90.85
2023-03-06T00:08:06.186Z,90.95
2023-03-06T00:09:06.275Z,91.89
2023-03-06T00:10:06.171Z,91.37
2023-03-06T00:11:06.184Z,90.54
2023-03-06T00:12:06.144Z,90.64
2023-03-06T00:13:06.157Z,90.54
2023-03-06T00:14:06.121Z,90.75
2023-03-06T00:15:06.129Z,91.58
2023-03-06T00:16:06.115Z,91.27
2023-03-06T00:17:06.097Z,91.78
2023-03-06T00:18:06.078Z,92.20
2023-03-06T00:19:06.072Z,91.89
2023-03-06T00:20:06.052Z,91.68
2023-03-06T00:21:06.064Z,91.89
2023-03-06T00:22:06.029Z,91.43
2023-03-06T00:23:06.024Z,91.68
2023-03-06T00:24:06.056Z,91.78
2023-03-06T00:25:06.016Z,91.85
2023-03-06T00:26:05.999Z,91.95
2023-03-06T00:27:05.977Z,91.89
2023-03-06T00:28:05.984Z,92.20
2023-03-06T00:29:06.026Z,92.10
2023-03-06T00:30:05.957Z,92.10
2023-03-06T00:31:06.008Z,91.78
2023-03-06T00:32:05.998Z,92.10
2023-03-06T00:33:05.910Z,92.20
2023-03-06T00:34:05.925Z,92.26
2023-03-06T00:35:05.886Z,91.99
2023-03-06T00:36:05.934Z,91.95
2023-03-06T00:37:05.884Z,91.95
2023-03-06T00:38:05.857Z,91.68
2023-03-06T00:39:05.866Z,91.74
2023-03-06T00:40:05.848Z,92.20
2023-03-06T00:41:05.830Z,92.20
2023-03-06T00:42:05.815Z,91.99
2023-03-06T00:43:05.807Z,91.99
2023-03-06T00:44:05.850Z,91.99
2023-03-06T00:45:05.793Z,91.99
2023-03-06T00:46:05.858Z,91.99
2023-03-06T00:47:05.758Z,92.61
2023-03-06T00:48:05.751Z,92.61
2023-03-06T00:49:05.741Z,92.72
2023-03-06T00:50:05.742Z,92.72
2023-03-06T00:51:05.714Z,92.51
2023-03-06T00:52:05.702Z,92.72
2023-03-06T00:53:05.692Z,92.51
2023-03-06T00:54:05.684Z,92.82
2023-03-06T00:55:05.657Z,92.72
2023-03-06T00:56:05.697Z,92.61
2023-03-06T00:57:05.645Z,92.61
2023-03-06T00:58:05.634Z,92.66
2023-03-06T00:59:05.626Z,92.51
2023-03-06T01:00:05.607Z,92.93
2023-03-06T01:01:05.647Z,92.93
2023-03-06T01:02:05.649Z,92.51
2023-03-06T01:03:05.569Z,92.72
2023-03-06T01:04:05.565Z,92.66
2023-03-06T01:05:05.552Z,92.61
2023-03-06T01:06:05.528Z,92.51
2023-03-06T01:07:05.539Z,92.72
2023-03-06T01:08:05.532Z,92.86
2023-03-06T01:09:05.493Z,92.30
2023-03-06T01:10:05.482Z,92.30
2023-03-06T01:11:05.474Z,92.93
2023-03-06T01:12:05.456Z,92.72
2023-03-06T01:13:05.481Z,92.61
2023-03-06T01:14:05.444Z,92.93
2023-03-06T01:15:05.441Z,92.86
2023-03-06T01:16:05.476Z,92.76
2023-03-06T01:17:05.422Z,92.61
2023-03-06T01:18:05.403Z,92.82
2023-03-06T01:19:05.392Z,92.72
2023-03-06T01:20:05.379Z,92.66
2023-03-06T01:21:05.370Z,92.72
2023-03-06T01:22:05.353Z,92.72
2023-03-06T01:23:05.406Z,92.86
2023-03-06T01:24:05.332Z,92.66
2023-03-06T01:25:05.325Z,92.55
2023-03-06T01:26:05.297Z,92.66
2023-03-06T01:27:05.304Z,92.55
2023-03-06T01:28:05.296Z,92.51
2023-03-06T01:29:05.263Z,92.61
2023-03-06T01:30:05.262Z,92.55
2023-03-06T01:31:05.253Z,92.61
2023-03-06T01:32:05.342Z,92.61
2023-03-06T01:33:05.266Z,92.55
2023-03-06T01:34:05.206Z,92.82
2023-03-06T01:35:05.194Z,92.66
2023-03-06T01:36:05.203Z,92.55
2023-03-06T01:37:05.171Z,92.55
2023-03-06T01:38:05.180Z,92.97
2023-03-06T01:39:05.163Z,91.99
2023-03-06T01:40:05.165Z,92.10
2023-03-06T01:41:05.129Z,92.24
2023-03-06T01:42:05.213Z,91.89
2023-03-06T01:43:05.127Z,91.83
2023-03-06T01:44:05.097Z,92.35
2023-03-06T01:45:05.097Z,92.14
2023-03-06T01:46:05.158Z,92.24
2023-03-06T01:47:05.071Z,91.41
2023-03-06T01:48:05.073Z,92.14
2023-03-06T01:49:05.058Z,92.35
2023-03-06T01:50:05.041Z,91.37
2023-03-06T01:51:05.028Z,92.14
2023-03-06T01:52:05.010Z,91.62
2023-03-06T01:53:05.017Z,92.30
2023-03-06T01:54:05.000Z,91.93
2023-03-06T01:55:04.986Z,91.72
2023-03-06T01:56:04.966Z,91.27
2023-03-06T01:57:04.959Z,91.62
2023-03-06T01:58:04.951Z,91.62
2023-03-06T01:59:04.926Z,91.93
2023-03-06T02:00:04.957Z,91.52
2023-03-06T02:01:04.951Z,91.93
2023-03-06T02:02:04.951Z,91.83
2023-03-06T02:03:04.901Z,91.72
2023-03-06T02:04:04.871Z,91.52
2023-03-06T02:05:04.888Z,91.41
2023-03-06T02:06:04.847Z,91.52
2023-03-06T02:07:04.873Z,91.83
2023-03-06T02:08:04.852Z,91.93
2023-03-06T02:09:04.810Z,92.14
2023-03-06T02:10:04.809Z,91.83
2023-03-06T02:11:04.803Z,92.03
2023-03-06T02:12:04.784Z,91.10
2023-03-06T02:13:04.793Z,91.52
2023-03-06T02:14:04.764Z,92.03
2023-03-06T02:15:04.749Z,92.24
2023-03-06T02:16:04.741Z,91.58
2023-03-06T02:17:04.724Z,91.68
2023-03-06T02:18:04.751Z,90.95
2023-03-06T02:19:04.699Z,91.10
2023-03-06T02:20:04.734Z,91.10
2023-03-06T02:21:04.720Z,91.10
2023-03-06T02:22:04.677Z,92.30
2023-03-06T02:23:04.684Z,91.78
2023-03-06T02:24:04.660Z,91.72
2023-03-06T02:25:04.649Z,91.52
2023-03-06T02:26:04.638Z,92.10
2023-03-06T02:27:04.631Z,91.62
2023-03-06T02:28:04.647Z,91.31
2023-03-06T02:29:04.619Z,92.45
2023-03-06T02:30:04.592Z,91.37
2023-03-06T02:31:04.639Z,91.62
2023-03-06T02:32:04.674Z,92.14
2023-03-06T02:33:04.556Z,92.24
2023-03-06T02:34:04.569Z,92.72
2023-03-06T02:35:04.530Z,92.55
2023-03-06T02:36:04.539Z,92.76
2023-03-06T02:37:04.518Z,92.86
2023-03-06T02:38:04.517Z,92.72
2023-03-06T02:39:04.518Z,92.76
2023-03-06T02:40:04.479Z,92.66
2023-03-06T02:41:04.471Z,92.86
2023-03-06T02:42:04.461Z,93.07
2023-03-06T02:43:04.445Z,92.55
2023-03-06T02:44:04.420Z,92.55
2023-03-06T02:45:04.417Z,92.35
2023-03-06T02:46:04.488Z,92.97
2023-03-06T02:47:04.396Z,92.86
2023-03-06T02:48:04.386Z,93.12
2023-03-06T02:49:04.372Z,92.76
2023-03-06T02:50:04.376Z,93.80
2023-03-06T02:51:04.335Z,93.84
2023-03-06T02:52:04.340Z,93.32
2023-03-06T02:53:04.353Z,93.63
2023-03-06T02:54:04.304Z,93.80
2023-03-06T02:55:04.304Z,93.74
2023-03-06T02:56:04.301Z,93.70
2023-03-06T02:57:04.279Z,93.74
2023-03-06T02:58:04.263Z,93.74
2023-03-06T02:59:04.257Z,93.53
2023-03-06T03:00:04.233Z,94.05
2023-03-06T03:01:04.241Z,93.74
2023-03-06T03:02:04.224Z,93.90
2023-03-06T03:03:04.198Z,93.84
2023-03-06T03:04:04.201Z,93.38
2023-03-06T03:05:05.198Z,93.90
2023-03-06T03:06:04.172Z,93.84
2023-03-06T03:07:04.191Z,93.32
2023-03-06T03:08:04.143Z,93.74
2023-03-06T03:09:04.161Z,94.21
2023-03-06T03:10:04.131Z,93.80
2023-03-06T03:11:04.106Z,93.84
2023-03-06T03:12:04.124Z,93.90
2023-03-06T03:13:04.096Z,94.05
2023-03-06T03:14:04.076Z,93.63
2023-03-06T03:15:04.074Z,93.95
2023-03-06T03:16:04.090Z,94.15
2023-03-06T03:17:04.050Z,94.01
2023-03-06T03:18:04.065Z,93.84
2023-03-06T03:19:04.032Z,94.26
2023-03-06T03:20:04.007Z,94.01
2023-03-06T03:21:04.003Z,94.11
2023-03-06T03:22:04.004Z,94.11
2023-03-06T03:23:03.989Z,94.01
2023-03-06T03:24:03.981Z,94.15
2023-03-06T03:25:03.990Z,93.84
2023-03-06T03:26:03.941Z,93.80
2023-03-06T03:27:03.926Z,94.05
2023-03-06T03:28:03.923Z,93.74
2023-03-06T03:29:03.918Z,93.90
2023-03-06T03:30:03.909Z,94.11
2023-03-06T03:31:03.905Z,93.80
2023-03-06T03:32:03.910Z,94.11
2023-03-06T03:33:03.864Z,93.80
2023-03-06T03:34:03.876Z,94.01
2023-03-06T03:36:25.860Z,93.90
2023-03-06T03:38:03.313Z,94.11
2023-03-06T03:39:32.924Z,94.01
2023-03-06T03:41:00.408Z,93.80
2023-03-06T03:42:26.337Z,94.01
2023-03-06T03:43:50.479Z,94.11
2023-03-06T03:45:13.731Z,93.90
2023-03-06T03:46:35.476Z,94.11
2023-03-06T03:47:55.932Z,93.38
2023-03-06T03:49:16.153Z,93.80
2023-03-06T03:50:35.133Z,93.80
2023-03-06T03:51:52.045Z,93.28
2023-03-06T03:53:08.602Z,93.70
2023-03-06T03:54:24.599Z,93.59
2023-03-06T03:55:40.252Z,93.28
2023-03-06T03:56:54.445Z,93.70
2023-03-06T03:58:07.355Z,93.18
2023-03-06T03:59:19.992Z,93.70
2023-03-06T04:00:33.534Z,93.28
2023-03-06T04:01:45.336Z,92.76
2023-03-06T04:02:56.100Z,92.66
2023-03-06T04:04:05.745Z,92.97
2023-03-06T04:05:15.345Z,93.23
2023-03-06T04:06:23.755Z,93.18
2023-03-06T04:07:31.872Z,92.86
2023-03-06T04:08:40.387Z,93.18
2023-03-06T04:09:46.897Z,93.70
2023-03-06T04:10:52.276Z,92.86
2023-03-06T04:11:56.181Z,93.18
2023-03-06T04:13:01.848Z,93.28
2023-03-06T04:14:03.329Z,92.86
2023-03-06T04:15:05.359Z,92.66
2023-03-06T04:16:07.448Z,92.97
2023-03-06T04:17:08.869Z,92.97
2023-03-06T04:18:09.406Z,92.97
2023-03-06T04:19:10.264Z,92.86
2023-03-06T04:20:09.907Z,92.76
2023-03-06T04:21:08.634Z,92.66
2023-03-06T04:22:07.968Z,92.76
2023-03-06T04:23:04.554Z,92.76
2023-03-06T04:24:00.872Z,92.86
2023-03-06T04:24:56.539Z,92.86
2023-03-06T04:25:52.604Z,92.66
2023-03-06T04:26:48.740Z,92.14
2023-03-06T04:27:42.513Z,92.66
2023-03-06T04:28:34.174Z,92.66
2023-03-06T04:29:28.056Z,92.76
2023-03-06T04:30:22.240Z,92.86
2023-03-06T04:31:13.868Z,93.59
2023-03-06T04:32:07.030Z,92.55
2023-03-06T04:32:57.528Z,92.35
2023-03-06T04:33:49.905Z,92.97
2023-03-06T04:34:38.308Z,92.55
2023-03-06T04:35:29.537Z,92.72
2023-03-06T04:36:17.274Z,92.76
2023-03-06T04:37:06.613Z,92.66
2023-03-06T04:37:55.355Z,92.76
2023-03-06T04:38:43.300Z,92.55
2023-03-06T04:39:30.128Z,92.55
2023-03-06T04:40:18.531Z,92.35
2023-03-06T04:41:03.947Z,92.55
2023-03-06T04:41:49.945Z,92.66
2023-03-06T04:42:36.583Z,92.86
2023-03-06T04:43:21.404Z,92.76
2023-03-06T04:44:05.879Z,92.66
2023-03-06T04:44:52.199Z,92.35
2023-03-06T04:45:37.039Z,92.35
2023-03-06T04:46:20.288Z,92.66
2023-03-06T04:47:06.019Z,92.55
2023-03-06T04:47:49.919Z,92.03
2023-03-06T04:48:32.022Z,92.14
2023-03-06T04:49:17.432Z,93.02
2023-03-06T04:49:58.659Z,92.14
2023-03-06T04:50:41.882Z,92.14
2023-03-06T04:51:24.572Z,92.45
2023-03-06T04:52:08.791Z,93.01
2023-03-06T04:52:49.080Z,91.72
2023-03-06T04:53:31.180Z,92.24
2023-03-06T04:54:11.126Z,92.24
2023-03-06T04:54:53.809Z,92.35
2023-03-06T04:55:36.211Z,91.83
2023-03-06T04:56:20.802Z,91.72
2023-03-06T04:57:02.495Z,91.31
2023-03-06T04:57:43.354Z,92.03
2023-03-06T04:58:23.312Z,91.93
2023-03-06T04:59:06.326Z,92.03
2023-03-06T04:59:45.331Z,92.24
2023-03-06T05:00:27.719Z,91.93
2023-03-06T05:01:08.051Z,91.83
2023-03-06T05:01:54.675Z,92.24
2023-03-06T05:02:33.781Z,91.83
2023-03-06T05:03:19.677Z,92.03
2023-03-06T05:03:56.033Z,91.52
2023-03-06T05:04:40.225Z,92.03
2023-03-06T05:05:22.675Z,91.52
2023-03-06T05:06:05.080Z,91.83
2023-03-06T05:06:43.758Z,91.72
2023-03-06T05:07:28.212Z,91.72
2023-03-06T05:08:07.559Z,91.83
2023-03-06T05:08:53.299Z,91.83
2023-03-06T05:09:33.532Z,92.35
2023-03-06T05:10:19.242Z,91.93
2023-03-06T05:10:59.524Z,91.52
2023-03-06T05:11:46.128Z,91.72
2023-03-06T05:12:28.522Z,91.93
2023-03-06T05:13:14.851Z,92.24
2023-03-06T05:13:58.159Z,91.83
2023-03-06T05:14:39.336Z,91.93
2023-03-06T05:15:20.798Z,92.14
2023-03-06T05:16:02.547Z,91.72
2023-03-06T05:16:44.391Z,91.83
2023-03-06T05:17:27.015Z,91.41
2023-03-06T05:18:08.494Z,91.10
2023-03-06T05:18:52.698Z,91.41
2023-03-06T05:19:36.905Z,91.45
2023-03-06T05:20:20.220Z,91.10
2023-03-06T05:21:05.606Z,91.83
2023-03-06T05:21:48.893Z,91.20
2023-03-06T05:22:36.452Z,91.10
2023-03-06T05:23:18.801Z,91.10
2023-03-06T05:24:05.436Z,91.62
2023-03-06T05:24:49.634Z,91.52
2023-03-06T05:25:37.491Z,91.93
2023-03-06T05:26:23.470Z,91.00
2023-03-06T05:27:10.082Z,91.31
2023-03-06T05:27:58.228Z,91.00
2023-03-06T05:28:46.380Z,91.20
2023-03-06T05:29:33.902Z,90.95
2023-03-06T05:30:24.179Z,90.69
2023-03-06T05:31:11.691Z,91.00
2023-03-06T05:32:01.210Z,91.62
2023-03-06T05:32:51.027Z,90.58
2023-03-06T05:33:41.724Z,90.89
2023-03-06T05:34:26.647Z,91.03
2023-03-06T05:35:20.004Z,91.14
2023-03-06T05:36:04.757Z,91.31
2023-03-06T05:36:58.320Z,91.83
2023-03-06T05:37:44.344Z,91.10
2023-03-06T05:38:30.960Z,90.89
2023-03-06T05:39:18.193Z,91.14
2023-03-06T05:40:05.720Z,91.10
2023-03-06T05:40:53.261Z,91.31
2023-03-06T05:41:41.406Z,91.72
2023-03-06T05:42:32.047Z,92.14
2023-03-06T05:43:25.266Z,91.10
2023-03-06T05:44:17.343Z,92.14
2023-03-06T05:45:05.785Z,91.72
2023-03-06T05:45:57.608Z,92.03
2023-03-06T05:46:48.131Z,92.35
2023-03-06T05:47:40.191Z,91.41
2023-03-06T05:48:28.933Z,91.31
2023-03-06T05:49:21.916Z,90.89
2023-03-06T05:50:14.990Z,91.00
2023-03-06T05:51:06.096Z,92.24
2023-03-06T05:51:59.388Z,91.83
2023-03-06T05:52:53.260Z,91.24
2023-03-06T05:53:46.835Z,91.10
2023-03-06T05:54:41.037Z,91.31
2023-03-06T05:55:35.826Z,91.62
2023-03-06T05:56:32.138Z,91.52
2023-03-06T05:57:27.888Z,91.31
2023-03-06T05:58:25.061Z,91.20
2023-03-06T05:59:18.961Z,91.20
2023-03-06T06:00:16.776Z,91.52
2023-03-06T06:01:15.830Z,91.62
2023-03-06T06:02:15.494Z,91.10
2023-03-06T06:03:14.234Z,91.31
2023-03-06T06:04:15.667Z,91.93
2023-03-06T06:05:15.942Z,91.35
2023-03-06T06:06:15.930Z,91.24
2023-03-06T06:07:15.955Z,91.20
2023-03-06T06:08:15.891Z,92.03
2023-03-06T06:09:15.890Z,91.62
2023-03-06T06:10:15.886Z,91.72
2023-03-06T06:11:15.868Z,91.14
2023-03-06T06:12:15.887Z,91.20
2023-03-06T06:13:15.836Z,91.31
2023-03-06T06:14:15.828Z,91.35
2023-03-06T06:15:15.825Z,91.20
2023-03-06T06:16:16.006Z,91.03
2023-03-06T06:17:15.824Z,91.66
2023-03-06T06:18:15.807Z,91.24
2023-03-06T06:19:15.766Z,91.66
2023-03-06T06:20:15.770Z,92.03
2023-03-06T06:21:15.751Z,91.10
2023-03-06T06:22:15.749Z,91.20
2023-03-06T06:23:15.753Z,91.35
2023-03-06T06:24:15.726Z,91.62
2023-03-06T06:25:15.710Z,92.45
2023-03-06T06:26:15.703Z,91.52
2023-03-06T06:27:15.706Z,91.62
2023-03-06T06:28:15.681Z,91.72
2023-03-06T06:29:15.684Z,91.72
2023-03-06T06:30:15.660Z,91.83
2023-03-06T06:31:15.677Z,90.72
2023-03-06T06:32:15.650Z,90.72
2023-03-06T06:33:15.635Z,91.45
2023-03-06T06:34:15.618Z,91.41
2023-03-06T06:35:15.604Z,91.10
2023-03-06T06:36:15.588Z,90.58
2023-03-06T06:37:15.577Z,91.10
2023-03-06T06:38:15.577Z,91.31
2023-03-06T06:39:15.552Z,91.52
2023-03-06T06:40:15.547Z,91.10
2023-03-06T06:41:46.251Z,91.31
2023-03-06T06:42:31.207Z,91.72
2023-03-06T06:43:16.511Z,91.10
2023-03-06T06:57:32.987Z,91.31
2023-03-06T06:58:32.919Z,90.69
2023-03-06T06:59:32.895Z,92.14
2023-03-06T07:00:32.925Z,91.00
2023-03-06T07:01:32.936Z,91.10
2023-03-06T07:02:32.880Z,92.03
2023-03-06T07:03:32.895Z,90.69
2023-03-06T07:04:32.852Z,91.06
2023-03-06T07:05:32.818Z,91.41
2023-03-06T07:06:32.810Z,90.89
2023-03-06T07:07:32.822Z,91.58
2023-03-06T07:08:32.797Z,90.37
2023-03-06T07:09:32.773Z,91.00
2023-03-06T07:10:32.767Z,90.85
2023-03-06T07:11:32.759Z,90.54
2023-03-06T07:12:32.763Z,91.10
2023-03-06T07:13:32.787Z,91.58
2023-03-06T07:14:32.752Z,90.85
2023-03-06T07:15:32.703Z,91.41
2023-03-06T07:16:32.698Z,91.00
2023-03-06T07:17:32.712Z,90.75
2023-03-06T07:18:32.670Z,90.95
2023-03-06T07:19:32.671Z,90.44
2023-03-06T07:20:32.662Z,90.75
2023-03-06T07:21:32.647Z,90.85
2023-03-06T07:22:41.574Z,90.85
2023-03-06T07:23:33.637Z,90.54
2023-03-06T07:24:32.606Z,90.75
2023-03-06T07:25:32.596Z,90.44
2023-03-06T07:26:34.617Z,90.12
2023-03-06T07:27:32.627Z,90.64
2023-03-06T07:28:46.181Z,90.23
2023-03-06T07:29:33.584Z,90.23
2023-03-06T07:30:32.553Z,90.23
2023-03-06T07:31:33.173Z,90.23
2023-03-06T07:32:32.541Z,90.23
2023-03-06T07:33:32.513Z,90.23
2023-03-06T07:34:32.520Z,89.81
2023-03-06T07:35:32.588Z,89.71
2023-03-06T07:36:32.502Z,89.81
2023-03-06T07:37:32.470Z,89.71
2023-03-06T07:38:32.462Z,90.02
2023-03-06T07:39:32.476Z,89.81
2023-03-06T07:40:32.433Z,89.71
2023-03-06T07:41:32.433Z,89.98
2023-03-06T07:42:32.420Z,89.61
2023-03-06T07:43:32.399Z,89.56
2023-03-06T07:44:32.410Z,89.67
2023-03-06T07:45:32.399Z,90.39
2023-03-06T07:46:32.456Z,89.87
2023-03-06T07:47:32.361Z,89.98
2023-03-06T07:48:32.358Z,90.19
2023-03-06T07:49:32.391Z,89.87
2023-03-06T07:50:32.328Z,89.94
2023-03-06T07:51:32.300Z,90.14
2023-03-06T07:52:32.293Z,89.52
2023-03-06T07:53:32.359Z,89.73
2023-03-06T07:54:32.302Z,89.31
2023-03-06T07:55:32.259Z,88.48
2023-03-06T07:56:32.248Z,87.87
2023-03-06T07:57:32.260Z,88.18
2023-03-06T07:58:32.225Z,88.21
2023-03-06T07:59:32.221Z,88.48
2023-03-06T08:00:32.234Z,87.97
2023-03-06T08:01:32.219Z,88.18
2023-03-06T08:02:32.243Z,88.39
2023-03-06T08:03:32.219Z,88.63
2023-03-06T08:04:32.174Z,87.76
2023-03-06T08:05:32.178Z,87.97
2023-03-06T08:06:32.142Z,87.87
2023-03-06T08:07:32.131Z,87.55
2023-03-06T08:08:32.125Z,88.07
2023-03-06T08:09:32.106Z,88.07
2023-03-06T08:10:32.110Z,87.76
2023-03-06T08:11:32.084Z,87.55
2023-03-06T08:12:32.087Z,87.87
2023-03-06T08:13:32.060Z,86.93
2023-03-06T08:14:32.097Z,86.83
2023-03-06T08:15:32.042Z,86.72
2023-03-06T08:16:32.121Z,86.83
2023-03-06T08:17:32.023Z,86.62
2023-03-06T08:18:32.020Z,86.72
2023-03-06T08:19:31.979Z,86.52
2023-03-06T08:20:31.973Z,86.41
2023-03-06T08:21:31.973Z,86.62
2023-03-06T08:22:31.949Z,86.93
2023-03-06T08:23:31.955Z,86.83
2023-03-06T08:24:31.931Z,86.72
2023-03-06T08:25:31.917Z,86.72
2023-03-06T08:26:31.956Z,87.04
2023-03-06T08:27:31.898Z,86.68
2023-03-06T08:28:31.895Z,86.93
2023-03-06T08:29:32.413Z,86.27
2023-03-06T08:30:31.863Z,86.58
2023-03-06T08:31:31.951Z,86.58
2023-03-06T08:32:31.889Z,86.93
2023-03-06T08:33:31.865Z,86.58
2023-03-06T08:34:31.817Z,86.68
2023-03-06T08:35:31.814Z,86.89
2023-03-06T08:36:31.843Z,86.13
2023-03-06T08:37:31.950Z,86.17
2023-03-06T08:38:31.767Z,86.23
2023-03-06T08:39:31.773Z,86.13
2023-03-06T08:40:31.749Z,85.40
2023-03-06T08:41:31.749Z,84.47
2023-03-06T08:42:31.722Z,84.68
2023-03-06T08:43:31.706Z,84.53
2023-03-06T08:44:31.700Z,84.53
2023-03-06T08:45:31.735Z,84.43
2023-03-06T08:46:31.681Z,84.01
2023-03-06T08:47:31.682Z,84.64
2023-03-06T08:48:31.667Z,83.91
2023-03-06T08:49:31.658Z,83.19
2023-03-06T08:50:31.650Z,82.67
2023-03-06T08:51:31.643Z,82.67
2023-03-06T08:52:31.628Z,82.50
2023-03-06T08:53:42.600Z,82.46
2023-03-06T08:54:32.583Z,82.67
2023-03-06T08:55:31.583Z,81.95
2023-03-06T08:56:31.578Z,81.74
2023-03-06T08:57:31.630Z,81.99
2023-03-06T08:58:31.572Z,82.50
2023-03-06T08:59:31.579Z,82.81
2023-03-06T09:00:31.604Z,82.81
2023-03-06T09:01:31.638Z,82.81
2023-03-06T09:02:31.534Z,82.60
2023-03-06T09:03:31.486Z,82.29
2023-03-06T09:04:31.528Z,82.36
2023-03-06T09:05:31.549Z,81.84
2023-03-06T09:06:31.466Z,81.23
2023-03-06T09:07:31.466Z,81.23
2023-03-06T09:08:31.446Z,80.50
2023-03-06T09:09:31.429Z,80.81
2023-03-06T09:10:31.456Z,80.71
2023-03-06T09:11:31.402Z,80.81
2023-03-06T09:12:37.380Z,80.71
2023-03-06T09:13:32.405Z,80.81
2023-03-06T09:14:31.373Z,80.81
2023-03-06T09:15:31.354Z,81.02
2023-03-06T09:16:31.413Z,80.08
2023-03-06T09:17:31.392Z,80.29
2023-03-06T09:18:31.327Z,79.57
2023-03-06T09:19:31.336Z,80.29
2023-03-06T09:20:31.310Z,79.63
2023-03-06T09:21:31.304Z,79.43
2023-03-06T09:22:31.269Z,79.43
2023-03-06T09:23:31.276Z,79.22
2023-03-06T09:24:31.268Z,79.33
2023-03-06T09:25:31.234Z,78.60
2023-03-06T09:26:45.140Z,78.70
2023-03-06T09:27:32.225Z,78.70
2023-03-06T09:28:31.227Z,79.02
2023-03-06T09:29:31.206Z,78.91
2023-03-06T09:30:31.232Z,78.46
2023-03-06T09:31:31.174Z,78.56
2023-03-06T09:32:31.198Z,78.91
2023-03-06T09:33:31.144Z,78.15
2023-03-06T09:34:31.152Z,78.56
2023-03-06T09:35:31.188Z,78.29
2023-03-06T09:36:31.116Z,78.60
2023-03-06T09:37:31.122Z,78.29
2023-03-06T09:38:31.095Z,78.29
2023-03-06T09:39:31.105Z,78.15
2023-03-06T09:40:31.108Z,78.05
2023-03-06T09:41:31.065Z,77.94
2023-03-06T09:42:31.058Z,78.46
2023-03-06T09:43:31.051Z,78.15
2023-03-06T09:44:31.030Z,78.53
2023-03-06T09:45:31.006Z,77.94
2023-03-06T09:46:31.122Z,78.46
2023-03-06T09:47:30.982Z,78.22
2023-03-06T09:48:30.990Z,78.22
2023-03-06T09:49:30.960Z,78.22
2023-03-06T09:50:30.959Z,77.50
2023-03-06T09:51:30.939Z,78.22
2023-03-06T09:52:31.130Z,78.84
2023-03-06T09:53:30.947Z,78.01
2023-03-06T09:54:30.920Z,78.32
2023-03-06T09:55:30.894Z,78.63
2023-03-06T09:56:30.897Z,78.74
2023-03-06T09:57:30.886Z,78.01
2023-03-06T09:58:30.926Z,78.32
2023-03-06T09:59:30.844Z,78.42
2023-03-06T10:00:30.850Z,78.11
2023-03-06T10:01:30.837Z,78.11
2023-03-06T10:02:30.948Z,78.42
2023-03-06T10:03:30.848Z,78.01
2023-03-06T10:04:30.931Z,78.11
2023-03-06T10:05:30.779Z,78.11
2023-03-06T10:06:30.768Z,78.77
2023-03-06T10:07:30.776Z,78.88
2023-03-06T10:08:30.774Z,79.36
2023-03-06T10:09:30.765Z,78.74
2023-03-06T10:10:30.725Z,78.77
2023-03-06T10:11:30.708Z,78.67
2023-03-06T10:12:30.703Z,78.88
2023-03-06T10:13:30.703Z,78.88
2023-03-06T10:14:30.693Z,78.98
2023-03-06T10:15:30.697Z,79.19
2023-03-06T10:16:30.671Z,78.77
2023-03-06T10:17:30.657Z,79.39
2023-03-06T10:18:30.655Z,79.19
2023-03-06T10:19:30.641Z,79.70
2023-03-06T10:20:30.626Z,79.70
2023-03-06T10:21:30.620Z,79.46
2023-03-06T10:22:30.593Z,78.74
2023-03-06T10:23:30.589Z,78.11
2023-03-06T10:24:30.592Z,78.18
2023-03-06T10:25:30.598Z,78.70
2023-03-06T10:26:30.654Z,78.39
2023-03-06T10:27:30.549Z,77.36
2023-03-06T10:28:30.564Z,76.70
2023-03-06T10:29:30.522Z,76.35
2023-03-06T10:30:30.509Z,76.25
2023-03-06T10:31:30.578Z,76.46
2023-03-06T10:32:39.684Z,75.70
2023-03-06T10:33:31.474Z,76.21
2023-03-06T10:34:30.473Z,76.01
2023-03-06T10:35:31.002Z,75.91
2023-03-06T10:36:30.435Z,75.81
2023-03-06T10:37:32.327Z,76.12
2023-03-06T10:38:30.422Z,75.29
2023-03-06T10:39:30.412Z,74.60
2023-03-06T10:40:30.402Z,74.46
2023-03-06T10:41:30.401Z,74.88
2023-03-06T10:42:30.383Z,74.67
2023-03-06T10:43:30.368Z,75.01
2023-03-06T10:44:30.355Z,75.09
2023-03-06T10:45:40.531Z,74.71
2023-03-06T10:46:31.406Z,75.29
2023-03-06T10:47:30.327Z,74.60
2023-03-06T10:48:30.319Z,74.71
2023-03-06T10:49:30.313Z,74.91
2023-03-06T10:50:30.297Z,74.29
2023-03-06T10:51:30.281Z,74.50
2023-03-06T10:52:30.267Z,75.05
2023-03-06T10:53:30.235Z,74.74
2023-03-06T10:54:30.241Z,75.05
2023-03-06T10:55:30.243Z,74.74
2023-03-06T10:56:30.206Z,74.46
2023-03-06T10:57:30.239Z,74.33
2023-03-06T10:58:30.207Z,74.57
2023-03-06T10:59:30.185Z,74.74
2023-03-06T11:00:30.170Z,75.09
2023-03-06T11:01:30.265Z,75.09
2023-03-06T11:02:30.138Z,75.49
2023-03-06T11:03:30.138Z,75.49
2023-03-06T11:04:30.240Z,74.98
2023-03-06T11:05:30.134Z,75.49
2023-03-06T11:06:30.106Z,75.53
2023-03-06T11:07:30.103Z,75.53
2023-03-06T11:08:30.078Z,76.26
2023-03-06T11:09:30.067Z,76.36
2023-03-06T11:10:30.062Z,76.46
2023-03-06T11:11:37.497Z,76.56
2023-03-06T11:12:31.016Z,76.56
2023-03-06T11:13:30.032Z,76.77
2023-03-06T11:14:29.993Z,76.26
2023-03-06T11:15:30.003Z,76.53
2023-03-06T11:16:30.040Z,77.15
2023-03-06T11:17:29.965Z,77.60
2023-03-06T11:18:29.966Z,78.42
2023-03-06T11:19:29.944Z,78.18
2023-03-06T11:20:41.224Z,78.22
2023-03-06T11:21:31.730Z,77.81
2023-03-06T11:22:29.919Z,78.42
2023-03-06T11:23:29.899Z,77.87
2023-03-06T11:24:29.882Z,78.49
2023-03-06T11:25:29.895Z,78.42
2023-03-06T11:26:29.870Z,78.18
2023-03-06T11:27:29.853Z,77.67
2023-03-06T11:28:29.838Z,77.91
2023-03-06T11:29:30.522Z,77.91
2023-03-06T11:30:29.823Z,78.11
2023-03-06T11:31:29.893Z,78.01
2023-03-06T11:32:29.867Z,78.01
2023-03-06T11:33:29.805Z,78.11
2023-03-06T11:34:29.761Z,78.53
2023-03-06T11:35:29.794Z,79.25
2023-03-06T11:36:29.779Z,80.35
2023-03-06T11:37:29.734Z,79.56
2023-03-06T11:38:29.735Z,79.91
2023-03-06T11:39:29.709Z,79.15
2023-03-06T11:40:29.709Z,79.29
2023-03-06T11:41:29.716Z,79.29
2023-03-06T11:42:29.676Z,80.18
2023-03-06T11:43:29.663Z,79.36
2023-03-06T11:44:29.653Z,79.25
2023-03-06T11:45:29.738Z,79.60
2023-03-06T11:46:29.836Z,79.36
2023-03-06T11:47:29.636Z,79.87
2023-03-06T11:48:29.610Z,79.97
2023-03-06T11:49:29.611Z,79.15
2023-03-06T11:50:29.597Z,79.15
2023-03-06T11:51:29.603Z,79.25
2023-03-06T11:52:29.574Z,78.84
2023-03-06T11:53:29.566Z,78.84
2023-03-06T11:54:29.551Z,78.84
2023-03-06T11:55:29.545Z,78.42
2023-03-06T11:56:31.583Z,77.91
2023-03-06T11:57:29.512Z,78.32
2023-03-06T11:58:29.518Z,77.98
2023-03-06T11:59:29.495Z,78.53
2023-03-06T12:00:29.488Z,78.74
2023-03-06T12:01:29.490Z,78.84
2023-03-06T12:02:29.558Z,78.84
2023-03-06T12:03:29.457Z,78.84
2023-03-06T12:04:29.461Z,78.84
2023-03-06T12:05:29.480Z,78.22
2023-03-06T12:06:29.421Z,78.42
2023-03-06T12:07:29.422Z,78.32
2023-03-06T12:08:29.396Z,78.22
2023-03-06T12:09:29.408Z,78.42
2023-03-06T12:10:29.364Z,78.53
2023-03-06T12:11:30.696Z,78.74
2023-03-06T12:12:29.351Z,79.15
2023-03-06T12:13:29.344Z,79.36
2023-03-06T12:14:29.347Z,79.87
2023-03-06T12:15:29.307Z,79.77
2023-03-06T12:16:29.346Z,79.66
2023-03-06T12:17:29.324Z,79.46
2023-03-06T12:18:29.286Z,78.84
2023-03-06T12:19:29.284Z,78.94
2023-03-06T12:20:29.265Z,78.74
2023-03-06T12:21:29.257Z,78.80
2023-03-06T12:22:31.175Z,78.59
2023-03-06T12:23:29.213Z,78.32
2023-03-06T12:24:29.212Z,78.08
2023-03-06T12:25:29.214Z,78.18
2023-03-06T12:26:29.182Z,78.70
2023-03-06T12:27:29.172Z,78.66
2023-03-06T12:28:29.177Z,78.56
2023-03-06T12:29:29.163Z,78.35
2023-03-06T12:30:29.144Z,78.14
2023-03-06T12:31:29.201Z,77.53
2023-03-06T12:32:29.138Z,77.80
2023-03-06T12:33:29.137Z,77.39
2023-03-06T12:34:29.086Z,76.25
2023-03-06T12:35:29.689Z,76.35
2023-03-06T12:36:29.108Z,75.84
2023-03-06T12:37:29.056Z,75.95
2023-03-06T12:38:29.050Z,75.95
2023-03-06T12:39:29.031Z,76.98
2023-03-06T12:40:29.026Z,76.67
2023-03-06T12:41:29.027Z,76.04
2023-03-06T12:42:29.001Z,75.95
2023-03-06T12:43:28.990Z,75.36
2023-03-06T12:44:28.998Z,75.63
2023-03-06T12:45:28.977Z,75.53
2023-03-06T12:46:28.976Z,75.32
2023-03-06T12:47:28.940Z,75.32